Time;durP1;ratioP1;P1;durP2;ratioP2;P2;SDS_P1;SDS_P2;PMS_P1;PMS_P2;Temp;Humidity;BMP_temperature;BMP_pressure;BME280_temperature;BME280_humidity;BME280_pressure;Samples;Min_cycle;Max_cycle;Signal;HPM_P1;HPM_P2
2021/11/02 00:01:11;;;;;;;;;;;6.40;99.90;;;;;;5053234;28;20504;-73
2021/11/02 00:03:44;;;;;;;3.83;3.05;;;6.40;99.90;;;;;;5052663;28;20379;-73
2021/11/02 00:06:11;;;;;;;3.95;3.33;;;6.40;99.90;;;;;;5052555;28;20491;-73
2021/11/02 00:08:38;;;;;;;5.55;3.95;;;6.40;99.90;;;;;;5052914;28;20048;-73
2021/11/02 00:11:06;;;;;;;4.88;3.78;;;6.30;99.90;;;;;;5052847;28;20041;-74
2021/11/02 00:13:37;;;;;;;4.40;3.50;;;6.30;99.90;;;;;;5049773;28;20102;-74
2021/11/02 00:16:17;;;;;;;4.13;3.72;;;6.30;99.90;;;;;;5034422;28;20072;-73
2021/11/02 00:19:01;;;;;;;5.05;3.60;;;6.30;99.90;;;;;;5031420;28;20076;-73
2021/11/02 00:21:41;;;;;;;4.75;3.30;;;6.20;99.90;;;;;;5016993;28;20049;-73
2021/11/02 00:24:16;;;;;;;4.85;3.88;;;6.20;99.90;;;;;;5032366;28;20052;-73
2021/11/02 00:26:48;;;;;;;5.65;3.42;;;6.20;99.90;;;;;;5016902;28;20048;-73
2021/11/02 00:29:20;;;;;;;5.43;3.78;;;6.10;99.90;;;;;;5032505;28;20060;-73
2021/11/02 00:31:53;;;;;;;4.65;3.40;;;6.10;99.90;;;;;;5032458;28;20129;-73
2021/11/02 00:34:20;;;;;;;4.85;3.60;;;6.00;99.90;;;;;;5032216;28;20423;-73
2021/11/02 00:36:50;;;;;;;5.20;3.97;;;6.10;99.90;;;;;;5032734;28;20072;-73
2021/11/02 00:39:17;;;;;;;4.65;3.65;;;6.00;99.90;;;;;;5032462;28;20045;-73
2021/11/02 00:41:50;;;;;;;4.50;4.10;;;6.00;99.90;;;;;;5033505;28;20064;-73
2021/11/02 00:44:18;;;;;;;4.70;4.00;;;6.00;99.90;;;;;;5031912;28;20041;-73
2021/11/02 00:46:45;;;;;;;5.18;3.50;;;6.00;99.90;;;;;;5032345;28;20049;-73
2021/11/02 00:49:20;;;;;;;5.90;3.75;;;6.00;99.90;;;;;;5032425;28;20045;-73
2021/11/02 00:51:55;;;;;;;6.72;4.28;;;5.90;99.90;;;;;;5032248;28;20496;-73
2021/11/02 00:54:27;;;;;;;4.20;3.75;;;5.90;99.90;;;;;;5016100;28;20132;-73
2021/11/02 00:56:59;;;;;;;5.40;4.05;;;5.90;99.90;;;;;;5032453;28;20050;-73
2021/11/02 00:59:26;;;;;;;4.22;3.53;;;5.90;99.90;;;;;;5016490;28;20050;-73
2021/11/02 01:01:55;;;;;;;4.85;4.25;;;5.80;99.90;;;;;;5032678;28;20049;-73
2021/11/02 01:04:27;;;;;;;6.28;4.13;;;5.80;99.90;;;;;;5031754;28;20037;-73
2021/11/02 01:06:54;;;;;;;5.47;4.32;;;5.80;99.90;;;;;;5031879;28;20061;-73
2021/11/02 01:09:27;;;;;;;5.20;4.20;;;5.80;99.90;;;;;;5033214;28;20488;-73
2021/11/02 01:12:01;;;;;;;4.20;3.67;;;5.80;99.90;;;;;;5031920;28;20112;-73
2021/11/02 01:14:28;;;;;;;6.10;4.13;;;5.70;99.90;;;;;;5031339;28;20067;-73
2021/11/02 01:17:02;;;;;;;6.72;4.47;;;5.70;99.90;;;;;;5031545;28;20046;-73
2021/11/02 01:19:34;;;;;;;6.70;5.13;;;5.70;99.90;;;;;;5031675;28;20056;-73
2021/11/02 01:22:02;;;;;;;6.00;4.93;;;5.70;99.90;;;;;;5031470;28;20496;-73
2021/11/02 01:24:34;;;;;;;10.00;4.70;;;5.80;99.90;;;;;;5031181;28;20416;-73
2021/11/02 01:27:02;;;;;;;6.50;4.82;;;5.70;99.90;;;;;;5031452;28;20049;-73
2021/11/02 01:29:34;;;;;;;8.73;5.88;;;5.80;99.90;;;;;;5031489;28;20451;-73
2021/11/02 01:32:08;;;;;;;5.38;4.38;;;5.80;99.90;;;;;;5032707;28;20037;-73
2021/11/02 01:34:46;;;;;;;6.18;4.82;;;5.70;99.90;;;;;;5031118;28;20404;-73
2021/11/02 01:37:18;;;;;;;4.70;3.67;;;5.70;99.90;;;;;;5031299;28;20440;-73
2021/11/02 01:39:53;;;;;;;5.65;4.13;;;5.70;99.90;;;;;;5031167;28;20042;-73
2021/11/02 01:42:24;;;;;;;5.68;3.78;;;5.60;99.90;;;;;;5030816;28;20064;-73
2021/11/02 01:44:53;;;;;;;4.50;3.72;;;5.60;99.90;;;;;;5030844;28;20042;-73
2021/11/02 01:47:21;;;;;;;5.32;4.40;;;5.70;99.90;;;;;;5032342;28;20041;-73
2021/11/02 01:49:54;;;;;;;5.88;4.40;;;5.60;99.90;;;;;;5031127;28;20045;-73
2021/11/02 01:52:22;;;;;;;6.57;4.53;;;5.60;99.90;;;;;;5014650;28;20504;-73
2021/11/02 01:54:55;;;;;;;5.75;4.47;;;5.60;99.90;;;;;;5029972;28;20041;-73
2021/11/02 01:57:26;;;;;;;6.32;4.57;;;5.50;99.90;;;;;;5030938;28;20133;-73
2021/11/02 01:59:59;;;;;;;6.30;4.95;;;5.50;99.90;;;;;;5030666;28;20042;-73
2021/11/02 02:03:09;;;;;;;5.35;4.28;;;5.50;99.90;;;;;;5030811;28;20045;-73
2021/11/02 02:05:52;;;;;;;6.38;4.75;;;5.50;99.90;;;;;;5030526;28;20064;-73
2021/11/02 02:09:02;;;;;;;5.60;4.65;;;5.40;99.90;;;;;;5030646;28;20045;-73
2021/11/02 02:11:46;;;;;;;5.78;4.45;;;5.40;99.90;;;;;;5015212;28;20411;-73
2021/11/02 02:15:11;;;;;;;8.68;4.97;;;5.30;99.90;;;;;;5030954;28;20099;-73
2021/11/02 02:18:11;;;;;;;5.75;4.68;;;5.30;99.90;;;;;;5004453;28;20119;-73
2021/11/02 02:21:09;;;;;;;8.13;5.07;;;5.20;99.90;;;;;;5014953;28;20056;-73
2021/11/02 02:24:26;;;;;;;8.15;5.45;;;5.30;99.90;;;;;;5029612;28;20081;-73
2021/11/02 02:27:09;;;;;;;10.23;6.32;;;5.20;99.90;;;;;;5030755;28;20033;-73
2021/11/02 02:29:42;;;;;;;7.13;5.50;;;5.20;99.90;;;;;;5014090;28;20092;-73
2021/11/02 02:32:16;;;;;;;9.00;6.53;;;5.20;99.90;;;;;;5030108;28;20503;-73
2021/11/02 02:34:45;;;;;;;;;;;5.20;99.90;;;;;;5030596;28;20073;-73
2021/11/02 02:37:14;;;;;;;11.07;5.72;;;5.10;99.90;;;;;;5030473;28;20015;-73
2021/11/02 02:39:56;;;;;;;8.90;6.43;;;5.10;99.90;;;;;;5030258;28;20091;-73
2021/11/02 02:42:29;;;;;;;6.70;5.40;;;5.10;99.90;;;;;;5031469;28;20042;-73
2021/11/02 02:44:57;;;;;;;10.07;5.93;;;5.10;99.90;;;;;;5029902;28;20413;-73
2021/11/02 02:47:30;;;;;;;9.20;5.88;;;5.10;99.90;;;;;;5014636;28;20048;-73
2021/11/02 02:50:03;;;;;;;6.53;5.25;;;5.20;99.90;;;;;;5030373;28;20081;-73
2021/11/02 02:52:39;;;;;;;7.88;5.97;;;5.30;99.90;;;;;;5030492;28;20292;-73
2021/11/02 02:55:08;;;;;;;7.68;6.88;;;5.30;99.90;;;;;;5029720;28;20055;-73
2021/11/02 02:57:42;;;;;;;8.20;5.78;;;5.30;99.90;;;;;;5014561;28;20042;-73
2021/11/02 03:00:17;;;;;;;8.23;5.38;;;5.40;99.90;;;;;;5030181;28;20045;-73
2021/11/02 03:02:51;;;;;;;8.25;5.75;;;5.40;99.90;;;;;;5029955;28;20478;-73
2021/11/02 03:05:22;;;;;;;8.95;5.57;;;5.50;99.90;;;;;;5029691;28;20052;-73
2021/11/02 03:07:55;;;;;;;11.32;5.70;;;5.60;99.90;;;;;;5030162;28;20041;-73
2021/11/02 03:10:24;;;;;;;8.38;5.78;;;5.70;99.90;;;;;;5029883;28;20140;-73
2021/11/02 03:12:58;;;;;;;7.75;5.47;;;5.70;99.90;;;;;;5029949;28;20501;-73
2021/11/02 03:15:53;;;;;;;6.43;4.80;;;5.80;99.90;;;;;;5014158;28;20046;-73
2021/11/02 03:58:44;;;;;;;4.93;3.30;;;5.90;99.90;;;;;;5033108;28;20049;-73
2021/11/02 04:24:33;;;;;;;4.97;2.85;;;5.80;99.90;;;;;;5032500;28;20578;-73
2021/11/02 04:30:16;;;;;;;5.68;3.50;;;5.80;99.90;;;;;;5034082;28;20116;-73
2021/11/02 05:57:29;;;;;;;4.25;2.97;;;6.10;99.90;;;;;;5038471;28;20087;-73
2021/11/02 06:06:05;;;;;;;3.13;2.50;;;6.10;99.90;;;;;;5039248;28;20677;-73
2021/11/02 06:28:11;;;;;;;2.97;2.05;;;6.00;99.90;;;;;;5034398;28;20042;-73
2021/11/02 06:30:53;;;;;;;3.65;1.98;;;6.00;99.90;;;;;;5039169;28;20068;-73
2021/11/02 06:33:43;;;;;;;2.92;2.20;;;6.00;99.90;;;;;;5042810;28;20526;-73
2021/11/02 06:36:29;;;;;;;3.75;1.98;;;6.00;99.90;;;;;;5043354;28;20045;-73
2021/11/02 07:17:03;;;;;;;5.70;3.35;;;6.00;99.90;;;;;;5033783;28;20079;-73
2021/11/02 07:19:39;;;;;;;4.72;3.60;;;6.10;99.90;;;;;;5033240;28;20061;-73
2021/11/02 08:47:42;;;;;;;4.68;2.17;;;8.00;99.90;;;;;;5049629;28;20056;-72
2021/11/02 08:50:20;;;;;;;3.75;2.15;;;8.00;99.90;;;;;;5046657;28;20128;-72
2021/11/02 08:52:54;;;;;;;3.50;2.30;;;8.10;99.90;;;;;;5048373;28;20103;-73
2021/11/02 08:55:26;;;;;;;1.90;1.70;;;8.10;99.90;;;;;;5049987;28;20086;-72
2021/11/02 08:57:59;;;;;;;2.60;1.80;;;8.20;99.90;;;;;;5052253;28;20098;-72
2021/11/02 09:00:31;;;;;;;2.95;1.80;;;8.30;99.90;;;;;;5045174;28;20045;-72
2021/11/02 09:03:15;;;;;;;2.10;1.45;;;8.30;99.90;;;;;;5021886;28;20055;-72
2021/11/02 09:05:45;;;;;;;7.18;2.65;;;8.40;99.90;;;;;;5045937;28;20041;-72
2021/11/02 09:08:12;;;;;;;2.50;1.50;;;8.50;99.90;;;;;;5033823;28;20689;-72
2021/11/02 09:10:44;;;;;;;4.28;1.65;;;8.60;99.90;;;;;;5044797;28;20110;-73
2021/11/02 09:13:17;;;;;;;2.50;1.50;;;8.60;99.90;;;;;;5025592;28;20527;-73
2021/11/02 09:15:51;;;;;;;2.95;1.70;;;8.80;99.90;;;;;;5025232;28;20049;-72
2021/11/02 09:18:24;;;;;;;2.80;1.40;;;8.80;99.90;;;;;;5045207;28;20110;-73
2021/11/02 09:20:58;;;;;;;2.53;1.55;;;8.90;99.90;;;;;;5044559;28;20041;-74
2021/11/02 09:23:31;;;;;;;3.20;1.48;;;8.90;99.90;;;;;;5022956;28;20601;-73
2021/11/02 09:26:02;;;;;;;2.80;1.27;;;8.90;99.90;;;;;;5035791;28;20106;-73
2021/11/02 09:28:30;;;;;;;3.42;1.10;;;9.00;99.90;;;;;;5050032;28;20103;-73
2021/11/02 09:30:57;;;;;;;3.47;1.15;;;9.10;99.90;;;;;;5031370;28;20468;-73
2021/11/02 09:33:31;;;;;;;3.60;1.25;;;9.10;99.90;;;;;;5043108;28;20120;-73
2021/11/02 09:36:01;;;;;;;2.22;1.20;;;9.20;99.90;;;;;;5033271;28;20048;-73
2021/11/02 09:38:58;;;;;;;2.90;1.30;;;9.30;99.90;;;;;;5041010;28;20044;-73
2021/11/02 09:42:01;;;;;;;3.92;1.00;;;9.30;99.90;;;;;;5032584;28;20060;-72
2021/11/02 09:44:36;;;;;;;1.42;0.98;;;9.40;99.90;;;;;;5047280;28;20491;-73
2021/11/02 09:47:32;;;;;;;2.90;1.17;;;9.50;99.90;;;;;;5051425;28;20530;-73
2021/11/02 09:50:22;;;;;;;2.28;1.17;;;9.60;99.90;;;;;;5068238;28;20045;-73
2021/11/02 09:52:55;;;;;;;3.42;1.05;;;9.70;99.90;;;;;;5051410;28;20041;-73
2021/11/02 09:56:00;;;;;;;2.90;1.10;;;9.70;99.90;;;;;;5049460;28;20419;-73
2021/11/02 09:58:42;;;;;;;2.30;0.90;;;9.70;99.90;;;;;;5033550;28;20140;-73
2021/11/02 10:01:30;;;;;;;3.55;0.98;;;9.70;99.90;;;;;;5050071;28;20057;-73
2021/11/02 10:04:07;;;;;;;3.42;1.15;;;9.80;99.90;;;;;;5042879;28;20041;-72
2021/11/02 10:06:58;;;;;;;2.00;0.65;;;9.80;99.90;;;;;;5048708;28;20045;-73
2021/11/02 10:09:44;;;;;;;4.47;0.85;;;9.80;99.90;;;;;;5046499;28;20048;-73
2021/11/02 10:12:20;;;;;;;1.70;0.60;;;9.80;99.90;;;;;;5025044;28;20063;-72
2021/11/02 10:14:50;;;;;;;3.03;1.10;;;9.80;99.90;;;;;;5049331;28;20055;-73
2021/11/02 10:17:45;;;;;;;8.23;1.17;;;9.80;99.90;;;;;;5051364;28;20037;-73
2021/11/02 10:21:06;;;;;;;2.35;0.60;;;9.80;99.90;;;;;;5040541;28;20084;-73
2021/11/02 10:23:59;;;;;;;1.58;0.80;;;9.90;99.90;;;;;;4983347;28;20049;-72
2021/11/02 10:27:05;;;;;;;2.78;0.80;;;9.90;99.90;;;;;;5050999;28;20041;-73
2021/11/02 10:29:42;;;;;;;2.78;0.60;;;9.90;99.90;;;;;;5045770;28;20097;-72
2021/11/02 10:32:26;;;;;;;2.58;0.80;;;9.80;99.90;;;;;;5029959;28;20045;-73
2021/11/02 10:35:01;;;;;;;2.45;0.75;;;9.80;99.90;;;;;;5013766;28;20064;-73
2021/11/02 10:37:53;;;;;;;2.28;0.90;;;9.70;99.90;;;;;;5036032;28;20048;-72
2021/11/02 10:40:27;;;;;;;1.33;0.80;;;9.60;99.90;;;;;;5039033;28;20045;-73
2021/11/02 10:43:23;;;;;;;2.25;0.73;;;9.40;99.90;;;;;;5034954;28;20075;-73
2021/11/02 10:46:07;;;;;;;5.50;0.95;;;9.20;99.90;;;;;;5046578;28;20045;-73
2021/11/02 10:48:41;;;;;;;2.22;0.50;;;9.10;99.90;;;;;;5049114;28;20052;-73
2021/11/02 10:51:22;;;;;;;2.47;0.63;;;9.00;99.90;;;;;;5037238;28;20120;-73
2021/11/02 10:54:40;;;;;;;2.35;0.77;;;8.90;99.90;;;;;;5030353;28;20503;-73
2021/11/02 10:57:25;;;;;;;2.13;0.68;;;8.80;99.90;;;;;;5017919;28;20041;-72
2021/11/02 11:00:04;;;;;;;2.35;0.70;;;8.70;99.90;;;;;;5046979;28;20048;-73
2021/11/02 11:02:32;;;;;;;1.45;0.60;;;8.60;99.90;;;;;;5049398;28;20040;-72
2021/11/02 11:05:01;;;;;;;1.25;0.63;;;8.60;99.90;;;;;;5049216;28;20048;-73
2021/11/02 11:07:34;;;;;;;2.50;0.70;;;8.60;99.90;;;;;;5033004;28;20052;-72
2021/11/02 11:10:08;;;;;;;2.15;0.60;;;8.60;99.90;;;;;;5049773;28;20037;-72
2021/11/02 11:12:55;;;;;;;5.40;1.00;;;8.60;99.90;;;;;;5049370;28;20049;-73
2021/11/02 11:15:33;;;;;;;1.85;0.45;;;8.70;99.90;;;;;;5046321;28;20041;-73
2021/11/02 11:18:06;;;;;;;2.00;1.25;;;8.60;99.90;;;;;;5047741;28;20056;-73
2021/11/02 11:20:39;;;;;;;1.45;0.90;;;8.60;99.90;;;;;;5050703;28;20082;-73
2021/11/02 11:23:13;;;;;;;1.20;0.80;;;8.60;99.90;;;;;;5027114;28;20036;-72
2021/11/02 11:25:53;;;;;;;0.90;0.80;;;8.60;99.90;;;;;;5041941;28;20042;-73
2021/11/02 11:28:28;;;;;;;4.55;1.20;;;8.60;99.90;;;;;;5042014;28;20041;-73
2021/11/02 11:30:57;;;;;;;2.40;0.70;;;8.60;99.90;;;;;;5046529;28;20455;-72
2021/11/02 11:33:30;;;;;;;0.80;0.55;;;8.70;99.90;;;;;;5030374;28;20162;-73
2021/11/02 11:36:04;;;;;;;1.80;0.60;;;8.70;99.90;;;;;;5049579;28;20131;-73
2021/11/02 11:38:43;;;;;;;0.95;0.65;;;8.80;99.90;;;;;;5049053;28;20045;-72
2021/11/02 11:41:19;;;;;;;1.25;0.60;;;8.80;99.90;;;;;;5046340;28;20046;-72
2021/11/02 11:43:53;;;;;;;0.65;0.40;;;8.80;99.90;;;;;;5052638;28;20056;-72
2021/11/02 11:46:28;;;;;;;0.77;0.40;;;8.80;99.90;;;;;;5052180;28;20106;-72
2021/11/02 11:49:00;;;;;;;0.52;0.30;;;8.80;99.90;;;;;;5052795;28;20056;-73
2021/11/02 11:51:31;;;;;;;2.80;0.93;;;8.80;99.90;;;;;;5052676;28;20036;-73
2021/11/02 11:54:12;;;;;;;2.30;0.50;;;8.70;99.90;;;;;;5051379;28;20150;-72
2021/11/02 11:56:44;;;;;;;1.23;0.60;;;8.70;99.90;;;;;;5049742;28;20136;-72
2021/11/02 11:59:18;;;;;;;0.45;0.40;;;8.70;99.90;;;;;;5047242;28;20098;-73
2021/11/02 12:02:11;;;;;;;2.17;0.73;;;8.70;99.90;;;;;;5066730;28;20530;-72
2021/11/02 12:04:48;;;;;;;1.27;0.40;;;8.70;99.90;;;;;;5071794;28;20042;-72
2021/11/02 12:07:35;;;;;;;0.90;0.40;;;8.70;99.90;;;;;;5053913;28;20049;-73
2021/11/02 12:10:10;;;;;;;0.40;0.30;;;8.70;99.90;;;;;;5048181;28;20464;-73
2021/11/02 12:12:44;;;;;;;0.70;0.47;;;8.60;99.90;;;;;;5049976;28;20039;-72
2021/11/02 12:15:17;;;;;;;0.40;0.40;;;8.60;99.90;;;;;;5047697;28;20045;-73
2021/11/02 12:17:49;;;;;;;0.63;0.40;;;8.70;99.90;;;;;;5036213;28;20415;-73
2021/11/02 12:20:22;;;;;;;0.50;0.40;;;8.70;99.90;;;;;;5021346;28;20045;-72
2021/11/02 12:22:54;;;;;;;0.40;0.30;;;8.70;99.90;;;;;;5051968;28;20132;-72
2021/11/02 12:25:33;;;;;;;0.57;0.30;;;8.70;99.90;;;;;;5049881;28;20036;-71
2021/11/02 12:28:06;;;;;;;0.70;0.40;;;8.70;99.90;;;;;;5036528;28;20573;-72
2021/11/02 12:30:33;;;;;;;0.70;0.30;;;8.70;99.90;;;;;;5052144;28;20571;-72
2021/11/02 12:33:10;;;;;;;0.32;0.30;;;8.70;99.90;;;;;;5042731;28;20057;-72
2021/11/02 12:35:48;;;;;;;0.50;0.50;;;8.70;99.90;;;;;;5031599;28;20095;-72
2021/11/02 12:38:42;;;;;;;0.60;0.30;;;8.70;99.90;;;;;;5033416;28;20044;-72
2021/11/02 12:41:20;;;;;;;0.40;0.30;;;8.80;99.90;;;;;;5032229;28;20676;-72
2021/11/02 12:44:08;;;;;;;0.40;0.40;;;8.80;99.90;;;;;;5032745;28;20064;-72
2021/11/02 12:46:44;;;;;;;1.75;0.30;;;8.80;99.90;;;;;;5031412;28;20088;-72
2021/11/02 12:49:34;;;;;;;1.08;0.38;;;8.90;99.90;;;;;;5034631;28;20040;-72
2021/11/02 12:52:05;;;;;;;2.55;1.40;;;9.00;99.90;;;;;;5030657;28;20044;-72
2021/11/02 12:54:38;;;;;;;1.25;0.43;;;9.00;99.90;;;;;;5038235;28;20038;-72
2021/11/02 12:57:16;;;;;;;0.82;0.43;;;9.10;99.90;;;;;;5031932;28;20122;-72
2021/11/02 12:59:59;;;;;;;0.60;0.60;;;9.10;99.90;;;;;;5016237;28;20128;-72
2021/11/02 13:02:35;;;;;;;0.73;0.55;;;9.20;99.90;;;;;;5031760;28;20053;-72
2021/11/02 13:05:16;;;;;;;0.43;0.40;;;9.40;99.90;;;;;;5031683;28;20076;-72
2021/11/02 13:07:45;;;;;;;0.40;0.40;;;9.50;99.90;;;;;;5031089;28;20577;-73
2021/11/02 13:10:22;;;;;;;0.85;0.43;;;9.70;99.90;;;;;;5033180;28;20124;-73
2021/11/02 13:12:52;;;;;;;0.60;0.52;;;10.00;99.90;;;;;;5032960;28;20382;-73
2021/11/02 13:15:26;;;;;;;0.47;0.47;;;10.10;99.90;;;;;;5029968;28;20050;-73
2021/11/02 13:18:00;;;;;;;1.20;0.40;;;10.10;99.90;;;;;;5031332;28;20045;-73
2021/11/02 13:20:35;;;;;;;0.73;0.30;;;10.10;99.90;;;;;;5015529;28;20049;-73
2021/11/02 13:23:08;;;;;;;2.50;0.60;;;10.10;99.90;;;;;;5031112;28;20044;-73
2021/11/02 13:25:41;;;;;;;1.30;0.45;;;10.00;99.90;;;;;;5030539;28;20393;-73
2021/11/02 13:28:09;;;;;;;0.52;0.32;;;9.90;99.90;;;;;;5031111;28;20038;-73
2021/11/02 13:30:37;;;;;;;0.60;0.40;;;10.00;99.90;;;;;;5030792;28;20492;-73
2021/11/02 13:33:29;;;;;;;1.77;0.40;;;10.10;99.90;;;;;;5030985;28;20049;-72
2021/11/02 13:36:01;;;;;;;0.77;0.30;;;10.10;99.90;;;;;;5031477;28;20045;-72
2021/11/02 13:38:36;;;;;;;0.75;0.40;;;10.10;99.90;;;;;;5032107;28;20045;-73
2021/11/02 13:41:23;;;;;;;0.50;0.40;;;10.00;99.90;;;;;;5014844;28;20065;-72
2021/11/02 13:44:05;;;;;;;0.82;0.63;;;9.80;99.90;;;;;;5030857;28;20050;-72
2021/11/02 13:46:40;;;;;;;1.42;0.52;;;9.70;99.90;;;;;;5014533;28;20091;-72
2021/11/02 13:49:09;;;;;;;0.55;0.40;;;9.80;99.90;;;;;;5030448;28;20049;-72
2021/11/02 13:51:43;;;;;;;0.38;0.38;;;10.00;99.90;;;;;;5015147;28;20496;-72
2021/11/02 13:54:15;;;;;;;0.68;0.38;;;10.10;99.90;;;;;;5014966;28;20072;-72
2021/11/02 13:56:47;;;;;;;0.32;0.30;;;10.10;99.90;;;;;;5015405;28;20042;-72
2021/11/02 13:59:19;;;;;;;0.50;0.40;;;10.10;99.90;;;;;;5031139;28;20049;-73
2021/11/02 14:01:54;;;;;;;0.40;0.30;;;10.00;99.90;;;;;;5014562;28;20061;-72
2021/11/02 14:04:33;;;;;;;0.40;0.32;;;10.00;99.90;;;;;;5030188;28;20041;-72
2021/11/02 14:07:14;;;;;;;0.40;0.40;;;10.00;99.90;;;;;;5030672;28;20048;-73
2021/11/02 14:09:50;;;;;;;0.77;0.47;;;10.00;99.90;;;;;;5030656;28;20049;-73
2021/11/02 14:12:27;;;;;;;0.60;0.40;;;10.10;99.90;;;;;;5014669;28;20050;-72
2021/11/02 14:15:11;;;;;;;0.93;0.40;;;10.20;99.90;;;;;;5030343;28;20046;-72
2021/11/02 14:17:46;;;;;;;0.43;0.30;;;10.20;99.90;;;;;;5014641;28;20053;-72
2021/11/02 14:20:33;;;;;;;0.50;0.43;;;10.20;99.90;;;;;;5031624;28;20120;-73
2021/11/02 14:23:07;;;;;;;0.50;0.43;;;10.20;99.90;;;;;;5031184;28;20045;-72
2021/11/02 14:25:40;;;;;;;1.67;0.30;;;10.10;99.90;;;;;;5029676;28;20049;-72
2021/11/02 14:28:28;;;;;;;0.30;0.30;;;9.90;99.90;;;;;;5015370;28;20107;-73
2021/11/02 14:31:00;;;;;;;0.40;0.30;;;9.90;99.90;;;;;;5030094;28;20044;-73
2021/11/02 14:33:48;;;;;;;1.10;0.43;;;9.80;99.90;;;;;;5014204;28;20049;-72
2021/11/02 14:36:33;;;;;;;0.68;0.30;;;9.70;99.90;;;;;;5036981;28;20504;-72
2021/11/02 14:39:00;;;;;;;0.88;0.40;;;9.60;99.90;;;;;;5051427;28;20056;-72
2021/11/02 14:41:32;;;;;;;0.60;0.43;;;9.70;99.90;;;;;;5032851;28;20040;-73
2021/11/02 14:44:27;;;;;;;0.85;0.40;;;9.80;99.90;;;;;;5049576;28;20036;-72
2021/11/02 14:46:59;;;;;;;1.95;0.50;;;9.80;99.90;;;;;;5049562;28;20056;-72
2021/11/02 14:49:31;;;;;;;0.85;0.60;;;9.80;99.90;;;;;;5050938;28;20569;-73
2021/11/02 14:52:07;;;;;;;0.85;0.50;;;9.80;99.90;;;;;;5049527;28;20132;-72
2021/11/02 14:54:45;;;;;;;1.13;0.40;;;9.80;99.90;;;;;;5049245;28;20132;-73
2021/11/02 14:57:20;;;;;;;0.70;0.40;;;9.70;99.90;;;;;;5049284;28;20132;-72
2021/11/02 14:59:52;;;;;;;0.43;0.40;;;9.70;99.90;;;;;;5033040;28;20139;-72
2021/11/02 15:02:37;;;;;;;0.45;0.40;;;9.70;99.90;;;;;;5049677;28;20044;-72
2021/11/02 15:05:07;;;;;;;1.02;0.50;;;9.60;99.90;;;;;;5050384;28;20124;-73
2021/11/02 15:07:44;;;;;;;1.80;1.70;;;9.50;99.90;;;;;;5033292;28;20048;-72
2021/11/02 15:10:18;;;;;;;0.70;0.60;;;9.40;99.90;;;;;;5049468;28;20111;-72
2021/11/02 15:12:50;;;;;;;0.82;0.70;;;9.30;99.90;;;;;;5049383;28;20029;-72
2021/11/02 15:15:17;;;;;;;0.82;0.40;;;9.20;99.90;;;;;;5048878;28;20065;-72
2021/11/02 15:18:06;;;;;;;0.65;0.40;;;9.20;99.90;;;;;;5052654;28;20123;-73
2021/11/02 15:20:37;;;;;;;4.72;0.70;;;9.10;99.90;;;;;;5053560;28;20076;-71
2021/11/02 15:23:10;;;;;;;1.08;0.50;;;9.10;99.90;;;;;;5052730;28;20056;-72
2021/11/02 15:25:37;;;;;;;0.55;0.50;;;9.00;99.90;;;;;;5054114;28;20041;-72
2021/11/02 15:28:04;;;;;;;0.65;0.52;;;9.00;99.90;;;;;;5053493;28;20131;-73
2021/11/02 15:30:37;;;;;;;1.00;0.70;;;9.00;99.90;;;;;;5054334;28;20514;-73
2021/11/02 15:33:04;;;;;;;2.60;0.50;;;8.90;99.90;;;;;;5052874;28;20052;-72
2021/11/02 15:35:31;;;;;;;0.90;0.60;;;8.90;99.90;;;;;;5052788;28;20049;-72
2021/11/02 15:38:03;;;;;;;0.60;0.50;;;8.80;99.90;;;;;;5037198;28;20040;-72
2021/11/02 15:40:42;;;;;;;0.70;0.70;;;8.80;99.90;;;;;;5053347;28;20045;-73
2021/11/02 15:43:14;;;;;;;0.82;0.60;;;8.70;99.90;;;;;;5052573;28;20127;-72
2021/11/02 15:45:47;;;;;;;0.70;0.55;;;8.60;99.90;;;;;;5052637;28;20068;-73
2021/11/02 15:48:18;;;;;;;3.03;0.77;;;8.60;99.90;;;;;;5036255;28;20486;-72
2021/11/02 15:50:48;;;;;;;0.98;0.50;;;8.50;99.90;;;;;;5035743;28;20130;-73
2021/11/02 15:53:21;;;;;;;0.85;0.60;;;8.50;99.90;;;;;;5052833;28;20133;-72
2021/11/02 15:55:58;;;;;;;1.23;0.60;;;8.50;99.90;;;;;;5053942;28;20041;-73
2021/11/02 15:58:27;;;;;;;1.77;0.63;;;8.40;99.90;;;;;;5052736;28;20072;-72
2021/11/02 16:00:54;;;;;;;1.35;0.80;;;8.40;99.90;;;;;;5052359;28;20608;-72
2021/11/02 16:03:34;;;;;;;1.48;0.80;;;8.40;99.90;;;;;;5052613;28;20037;-72
2021/11/02 16:06:06;;;;;;;6.68;2.75;;;8.30;99.90;;;;;;5053110;28;20051;-73
2021/11/02 16:08:38;;;;;;;1.63;0.70;;;8.30;99.90;;;;;;5052627;28;20526;-72
2021/11/02 16:11:10;;;;;;;1.40;0.90;;;8.20;99.90;;;;;;5052254;28;20056;-71
2021/11/02 16:13:38;;;;;;;0.82;0.75;;;8.20;99.90;;;;;;5052251;28;20056;-72
2021/11/02 16:16:06;;;;;;;1.75;1.30;;;8.10;99.90;;;;;;5035271;28;20438;-72
2021/11/02 16:18:40;;;;;;;1.95;1.00;;;8.10;99.90;;;;;;5052308;28;20507;-72
2021/11/02 16:21:12;;;;;;;1.27;1.10;;;8.00;99.90;;;;;;5036249;28;20049;-72
2021/11/02 16:23:41;;;;;;;1.58;1.00;;;8.00;99.90;;;;;;5046326;28;20068;-72
2021/11/02 16:26:17;;;;;;;1.83;0.93;;;8.00;99.90;;;;;;5036167;28;20091;-73
2021/11/02 16:28:51;;;;;;;1.63;1.02;;;7.90;99.90;;;;;;5042577;28;20041;-72
2021/11/02 16:31:29;;;;;;;0.95;0.90;;;7.80;99.90;;;;;;5042659;28;20065;-72
2021/11/02 16:33:57;;;;;;;3.50;1.48;;;7.80;99.90;;;;;;5045716;28;20033;-71
2021/11/02 16:36:38;;;;;;;1.63;1.17;;;7.70;99.90;;;;;;5041866;28;20125;-72
2021/11/02 16:39:14;;;;;;;3.03;1.00;;;7.70;99.90;;;;;;5041228;28;20041;-72
2021/11/02 16:41:53;;;;;;;2.10;1.10;;;7.70;99.90;;;;;;5046953;28;20046;-71
2021/11/02 16:44:35;;;;;;;;;;;7.60;99.90;;;;;;5048827;28;20492;-72
2021/11/02 16:47:06;;;;;;;1.10;0.90;;;7.60;99.90;;;;;;5045373;28;20012;-75
2021/11/02 16:49:35;;;;;;;0.77;0.70;;;7.50;99.90;;;;;;5053058;28;20051;-74
2021/11/02 16:52:07;;;;;;;1.13;0.98;;;7.40;99.90;;;;;;5053226;28;20041;-74
2021/11/02 16:54:43;;;;;;;3.40;1.15;;;7.50;99.90;;;;;;5051085;28;20462;-73
2021/11/02 16:57:18;;;;;;;1.45;1.10;;;7.40;99.90;;;;;;5045260;28;20045;-74
2021/11/02 17:00:01;;;;;;;2.00;1.20;;;7.40;99.90;;;;;;5047880;28;20045;-73
2021/11/02 17:02:37;;;;;;;1.38;0.95;;;7.40;99.90;;;;;;5050178;28;20053;-73
2021/11/02 17:05:15;;;;;;;1.02;0.80;;;7.40;99.90;;;;;;5047438;28;20041;-72
2021/11/02 17:08:02;;;;;;;1.05;0.70;;;7.40;99.90;;;;;;5023215;28;20088;-72
2021/11/02 17:10:31;;;;;;;1.00;0.70;;;7.50;99.90;;;;;;5035563;28;20041;-72
2021/11/02 17:13:14;;;;;;;1.30;0.57;;;7.50;99.90;;;;;;5050707;28;20056;-72
2021/11/02 17:15:59;;;;;;;0.93;0.70;;;7.50;99.90;;;;;;5039470;28;20041;-71
2021/11/02 17:18:45;;;;;;;0.90;0.80;;;7.40;99.90;;;;;;5035182;28;20136;-70
2021/11/02 17:21:17;;;;;;;1.38;1.23;;;7.40;99.90;;;;;;5035465;28;20131;-71
2021/11/02 17:23:51;;;;;;;1.77;1.50;;;7.40;99.90;;;;;;5020577;28;20149;-72
2021/11/02 17:26:28;;;;;;;0.90;0.70;;;7.40;99.90;;;;;;5053778;28;20426;-72
2021/11/02 17:29:04;;;;;;;1.05;0.80;;;7.40;99.90;;;;;;5044032;28;20048;-72
2021/11/02 17:31:37;;;;;;;1.00;0.73;;;7.40;99.90;;;;;;5043214;28;20574;-71
2021/11/02 17:34:25;;;;;;;1.27;0.93;;;7.40;99.90;;;;;;5032324;28;20037;-71
2021/11/02 17:36:58;;;;;;;2.10;1.20;;;7.40;99.90;;;;;;5031472;28;20044;-72
2021/11/02 17:39:27;;;;;;;0.70;0.60;;;7.30;99.90;;;;;;5029726;28;20041;-71
2021/11/02 17:41:57;;;;;;;1.25;0.77;;;7.30;99.90;;;;;;5029929;28;20465;-71
2021/11/02 17:44:29;;;;;;;0.93;0.70;;;7.20;99.90;;;;;;5029743;28;20037;-71
2021/11/02 17:47:02;;;;;;;1.58;1.20;;;7.20;99.90;;;;;;5047047;28;20407;-71
2021/11/02 17:49:31;;;;;;;1.13;1.02;;;7.20;99.90;;;;;;5045078;28;20049;-71
2021/11/02 17:52:04;;;;;;;2.33;0.80;;;7.10;99.90;;;;;;5043167;28;20043;-71
2021/11/02 17:54:40;;;;;;;1.30;0.90;;;7.00;99.90;;;;;;5046850;28;20044;-71
2021/11/02 17:57:09;;;;;;;1.25;0.70;;;6.90;99.90;;;;;;5041785;28;20041;-71
2021/11/02 17:59:44;;;;;;;1.15;0.95;;;6.90;99.90;;;;;;5042632;28;20045;-71
2021/11/02 18:02:18;;;;;;;0.77;0.60;;;6.90;99.90;;;;;;5037782;28;20064;-71
2021/11/02 18:04:51;;;;;;;0.80;0.70;;;6.90;99.90;;;;;;5033858;28;20073;-71
2021/11/02 18:07:20;;;;;;;1.35;1.08;;;6.80;99.90;;;;;;5040495;28;20040;-71
2021/11/02 18:09:49;;;;;;;2.17;1.08;;;6.80;99.90;;;;;;5036754;28;20483;-71
2021/11/02 18:12:19;;;;;;;0.90;0.70;;;6.80;99.90;;;;;;5038932;28;20041;-71
2021/11/02 18:14:54;;;;;;;1.60;0.90;;;6.70;99.90;;;;;;5037560;28;20036;-71
2021/11/02 18:17:24;;;;;;;1.35;1.08;;;6.60;99.90;;;;;;5039217;28;20040;-72
2021/11/02 18:19:59;;;;;;;2.38;1.90;;;6.60;99.90;;;;;;5038861;28;20045;-71
2021/11/02 18:22:32;;;;;;;3.60;2.90;;;6.60;99.90;;;;;;5041575;28;20120;-71
2021/11/02 18:25:08;;;;;;;3.65;2.90;;;6.50;99.90;;;;;;5042627;28;20045;-71
2021/11/02 18:27:35;;;;;;;3.78;2.90;;;6.50;99.90;;;;;;5037802;28;20166;-71
2021/11/02 18:30:08;;;;;;;4.30;2.78;;;6.40;99.90;;;;;;5045148;28;20549;-71
2021/11/02 18:32:41;;;;;;;3.70;3.20;;;6.30;99.90;;;;;;5049114;28;20399;-71
2021/11/02 18:35:14;;;;;;;3.70;2.92;;;6.30;99.90;;;;;;5049170;28;20558;-71
2021/11/02 18:37:47;;;;;;;5.13;3.33;;;6.20;99.90;;;;;;5049016;28;20511;-70
2021/11/02 18:40:17;;;;;;;3.40;2.92;;;6.20;99.90;;;;;;5050567;28;20095;-71
2021/11/02 18:42:54;;;;;;;3.60;2.78;;;6.20;99.90;;;;;;5033510;28;20519;-72
2021/11/02 18:45:27;;;;;;;3.20;2.13;;;6.10;99.90;;;;;;5049090;28;20148;-71